createdAt,value
2019-05-13T00:00:14.115Z,6.37
2019-05-13T00:02:43.648Z,6.35
2019-05-13T00:05:10.431Z,6.39
2019-05-13T00:07:37.723Z,6.42
2019-05-13T00:10:04.762Z,6.42
2019-05-13T00:12:31.806Z,6.39
2019-05-13T00:14:59.095Z,6.39
2019-05-13T00:17:26.403Z,6.36
2019-05-13T00:19:53.436Z,6.30
2019-05-13T00:22:20.743Z,6.23
2019-05-13T00:24:48.026Z,6.17
2019-05-13T00:27:15.420Z,6.08
2019-05-13T00:29:44.415Z,5.95
2019-05-13T00:32:13.472Z,5.82
2019-05-13T00:34:40.329Z,5.74
2019-05-13T00:37:11.450Z,5.66
2019-05-13T00:39:37.322Z,5.55
2019-05-13T00:42:04.622Z,5.47
2019-05-13T00:44:33.783Z,5.39
2019-05-13T00:47:00.651Z,5.29
2019-05-13T00:49:27.691Z,5.19
2019-05-13T00:51:54.964Z,5.13
2019-05-13T00:54:23.691Z,5.06
2019-05-13T00:56:50.764Z,5.00
2019-05-13T00:59:18.064Z,4.95
2019-05-13T01:01:45.096Z,4.89
2019-05-13T01:04:14.317Z,4.85
2019-05-13T01:06:43.380Z,4.81
2019-05-13T01:09:09.849Z,4.77
2019-05-13T01:11:36.872Z,4.74
2019-05-13T01:14:04.419Z,4.74
2019-05-13T01:16:33.939Z,4.72
2019-05-13T01:19:00.229Z,4.67
2019-05-13T01:21:27.258Z,4.64
2019-05-13T01:23:54.470Z,4.63
2019-05-13T01:26:23.282Z,4.60
2019-05-13T01:28:50.384Z,4.59
2019-05-13T01:31:17.656Z,4.54
2019-05-13T01:33:44.964Z,4.47
2019-05-13T01:36:13.431Z,4.44
2019-05-13T01:38:40.572Z,4.45
2019-05-13T01:41:07.915Z,4.43
2019-05-13T01:43:34.965Z,4.42
2019-05-13T01:46:04.215Z,4.40
2019-05-13T01:48:33.152Z,4.37
2019-05-13T01:50:59.794Z,4.35
2019-05-13T01:53:26.847Z,4.29
2019-05-13T01:55:53.887Z,4.25
2019-05-13T01:58:27.759Z,4.20
2019-05-13T02:00:55.424Z,4.17
2019-05-13T02:03:24.571Z,4.12
2019-05-13T02:05:54.223Z,4.12
2019-05-13T02:08:20.572Z,4.11
2019-05-13T02:10:47.970Z,4.06
2019-05-13T02:13:14.992Z,4.02
2019-05-13T02:15:42.027Z,4.01
2019-05-13T02:18:09.055Z,3.98
2019-05-13T02:20:36.461Z,3.98
2019-05-13T02:23:04.693Z,4.00
2019-05-13T02:25:34.025Z,3.99
2019-05-13T02:28:00.462Z,3.95
2019-05-13T02:30:27.521Z,3.93
2019-05-13T02:32:54.545Z,3.86
2019-05-13T02:35:23.155Z,3.85
2019-05-13T02:38:18.527Z,3.84
2019-05-13T02:40:32.701Z,3.81
2019-05-13T02:43:02.888Z,3.79
2019-05-13T02:45:28.560Z,3.75
2019-05-13T02:47:55.835Z,3.73
2019-05-13T02:50:23.140Z,3.76
2019-05-13T02:52:52.966Z,3.73
2019-05-13T02:55:22.152Z,3.69
2019-05-13T02:57:47.626Z,3.66
2019-05-13T03:00:14.670Z,3.62
2019-05-13T03:02:43.862Z,3.60
2019-05-13T03:05:13.750Z,3.56
2019-05-13T03:07:42.551Z,3.55
2019-05-13T03:10:08.666Z,3.52
2019-05-13T03:12:35.960Z,3.48
2019-05-13T03:15:03.267Z,3.45
2019-05-13T03:17:32.687Z,3.44
2019-05-13T03:19:59.000Z,3.43
2019-05-13T03:22:26.342Z,3.47
2019-05-13T03:24:53.408Z,3.45
2019-05-13T03:27:24.927Z,3.42
2019-05-13T03:29:49.529Z,3.36
2019-05-13T03:32:17.494Z,3.37
2019-05-13T03:34:46.120Z,3.36
2019-05-13T03:37:15.596Z,3.35
2019-05-13T03:39:43.464Z,3.39
2019-05-13T03:42:12.386Z,3.41
2019-05-13T03:44:42.693Z,3.41
2019-05-13T03:47:12.403Z,3.43
2019-05-13T03:49:38.166Z,3.48
2019-05-13T03:52:05.211Z,3.50
2019-05-13T03:54:32.875Z,3.60
2019-05-13T03:57:03.174Z,3.86
2019-05-13T03:59:29.161Z,4.24
2019-05-13T04:01:56.209Z,4.64
2019-05-13T04:04:23.699Z,4.95
2019-05-13T04:06:52.967Z,5.48
2019-05-13T04:09:30.102Z,5.59
2019-05-13T04:11:52.596Z,5.27
2019-05-13T04:14:22.604Z,4.97
2019-05-13T04:16:48.541Z,4.86
2019-05-13T04:19:15.579Z,5.60
2019-05-13T04:21:43.233Z,6.25
2019-05-13T04:24:12.229Z,6.03
2019-05-13T04:26:39.150Z,5.66
2019-05-13T04:29:06.534Z,5.41
2019-05-13T04:31:33.586Z,5.22
2019-05-13T04:34:02.236Z,5.17
2019-05-13T04:36:31.944Z,5.19
2019-05-13T04:38:58.489Z,5.17
2019-05-13T04:41:25.589Z,5.35
2019-05-13T04:43:54.181Z,5.95
2019-05-13T04:46:23.086Z,5.90
2019-05-13T04:48:53.071Z,5.83
2019-05-13T04:51:22.316Z,5.75
2019-05-13T04:53:53.313Z,5.75
2019-05-13T04:56:16.701Z,5.88
2019-05-13T04:58:43.768Z,7.67
2019-05-13T05:01:14.078Z,8.44
2019-05-13T05:03:44.667Z,9.11
2019-05-13T05:06:08.578Z,9.24
2019-05-13T05:08:35.890Z,11.49
2019-05-13T05:11:02.944Z,13.83
2019-05-13T05:13:32.349Z,14.96
2019-05-13T05:15:59.306Z,15.54
2019-05-13T05:18:26.355Z,16.81
2019-05-13T05:20:53.388Z,17.16
2019-05-13T05:23:21.442Z,17.98
2019-05-13T05:25:48.663Z,18.64
2019-05-13T05:28:15.707Z,18.92
2019-05-13T05:30:42.739Z,19.43
2019-05-13T05:33:11.412Z,19.96
2019-05-13T05:35:38.944Z,20.71
2019-05-13T05:38:05.992Z,20.53
2019-05-13T05:40:34.702Z,18.36
2019-05-13T05:43:02.445Z,18.61
2019-05-13T05:45:31.862Z,17.27
2019-05-13T05:47:58.710Z,17.96
2019-05-13T05:50:25.758Z,17.58
2019-05-13T05:52:52.803Z,16.73
2019-05-13T05:55:21.374Z,17.36
2019-05-13T05:57:48.544Z,17.69
2019-05-13T06:00:15.590Z,18.40
2019-05-13T06:02:42.805Z,17.80
2019-05-13T06:05:11.847Z,18.25
2019-05-13T06:07:38.586Z,17.45
2019-05-13T06:10:06.699Z,16.84
2019-05-13T06:12:33.732Z,15.65
2019-05-13T06:15:02.617Z,15.77
2019-05-13T06:17:31.945Z,15.23
2019-05-13T06:19:58.714Z,16.00
2019-05-13T06:22:26.088Z,16.03
2019-05-13T06:24:53.138Z,16.09
2019-05-13T06:27:21.293Z,16.54
2019-05-13T06:29:49.336Z,15.91
2019-05-13T06:32:23.520Z,15.71
2019-05-13T06:34:46.275Z,16.16
2019-05-13T06:37:13.303Z,16.17
2019-05-13T06:39:42.003Z,15.08
2019-05-13T06:42:11.454Z,14.97
2019-05-13T06:44:38.159Z,14.82
2019-05-13T06:47:05.188Z,15.19
2019-05-13T06:49:32.715Z,15.25
2019-05-13T06:52:01.647Z,15.85
2019-05-13T06:54:29.119Z,15.80
2019-05-13T06:56:56.409Z,15.39
2019-05-13T06:59:23.767Z,15.12
2019-05-13T07:01:51.456Z,14.93
2019-05-13T07:04:18.779Z,14.86
2019-05-13T07:06:45.821Z,14.32
2019-05-13T07:09:12.870Z,14.38
2019-05-13T07:11:41.676Z,14.46
2019-05-13T07:14:11.924Z,14.22
2019-05-13T07:16:37.915Z,13.54
2019-05-13T07:19:05.291Z,13.34
2019-05-13T07:21:32.631Z,13.32
2019-05-13T07:24:02.000Z,13.21
2019-05-13T07:26:28.408Z,12.98
2019-05-13T07:28:57.123Z,13.30
2019-05-13T07:31:24.914Z,13.27
2019-05-13T07:33:51.967Z,13.24
2019-05-13T07:36:19.317Z,12.98
2019-05-13T07:38:46.614Z,12.94
2019-05-13T07:41:13.651Z,13.34
2019-05-13T07:43:42.612Z,13.72
2019-05-13T07:46:12.557Z,14.46
2019-05-13T07:48:41.616Z,14.83
2019-05-13T07:51:11.731Z,15.48
2019-05-13T07:53:37.807Z,14.89
2019-05-13T07:56:04.863Z,14.54
2019-05-13T07:58:37.210Z,14.71
2019-05-13T08:01:02.370Z,14.55
2019-05-13T08:03:31.718Z,14.82
2019-05-13T08:05:58.699Z,14.92
2019-05-13T08:08:26.098Z,14.96
2019-05-13T08:10:53.551Z,15.50
2019-05-13T08:13:22.529Z,15.98
2019-05-13T08:15:54.435Z,16.01
2019-05-13T08:18:22.039Z,15.82
2019-05-13T08:20:48.557Z,16.07
2019-05-13T08:23:16.684Z,15.92
2019-05-13T08:25:43.723Z,15.64
2019-05-13T08:28:12.270Z,15.49
2019-05-13T08:30:42.254Z,16.07
2019-05-13T08:33:08.433Z,16.42
2019-05-13T08:35:35.482Z,16.10
2019-05-13T08:38:02.510Z,15.57
2019-05-13T08:40:31.778Z,15.75
2019-05-13T08:42:58.587Z,15.36
2019-05-13T08:45:25.948Z,15.47
2019-05-13T08:47:52.982Z,15.65
2019-05-13T08:50:21.983Z,15.41
2019-05-13T08:52:51.239Z,15.16
2019-05-13T08:55:18.011Z,15.10
2019-05-13T08:57:45.045Z,15.34
2019-05-13T09:00:13.733Z,15.49
2019-05-13T09:02:42.014Z,15.80
2019-05-13T09:05:09.126Z,15.44
2019-05-13T09:07:36.171Z,14.89
2019-05-13T09:10:03.490Z,14.56
2019-05-13T09:12:35.660Z,13.58
2019-05-13T09:14:59.276Z,12.98
2019-05-13T09:17:26.315Z,13.11
2019-05-13T09:19:53.625Z,14.03
2019-05-13T09:22:21.382Z,14.42
2019-05-13T09:24:48.658Z,13.71
2019-05-13T09:27:15.780Z,13.42
2019-05-13T09:29:44.070Z,13.11
2019-05-13T09:32:12.227Z,12.79
2019-05-13T09:34:42.232Z,12.69
2019-05-13T09:37:11.691Z,12.31
2019-05-13T09:39:38.609Z,12.78
2019-05-13T09:42:05.663Z,13.03
2019-05-13T09:44:33.153Z,12.45
2019-05-13T09:47:02.526Z,12.22
2019-05-13T09:49:29.286Z,11.94
2019-05-13T09:51:56.614Z,12.34
2019-05-13T09:54:23.651Z,12.43
2019-05-13T09:56:51.864Z,12.28
2019-05-13T09:59:21.968Z,12.34
2019-05-13T10:01:48.495Z,13.07
2019-05-13T10:04:15.845Z,13.70
2019-05-13T10:06:43.147Z,14.76
2019-05-13T10:09:12.599Z,15.31
2019-05-13T10:11:38.927Z,14.69
2019-05-13T10:14:06.316Z,13.84
2019-05-13T10:16:33.341Z,13.06
2019-05-13T10:19:01.683Z,13.27
2019-05-13T10:21:29.510Z,13.57
2019-05-13T10:23:58.775Z,14.58
2019-05-13T10:26:25.637Z,14.76
2019-05-13T10:28:53.001Z,13.88
2019-05-13T10:31:22.026Z,14.10
2019-05-13T10:33:51.433Z,14.17
2019-05-13T10:36:18.165Z,14.20
2019-05-13T10:38:45.219Z,15.07
2019-05-13T10:41:12.524Z,15.15
2019-05-13T10:43:43.780Z,14.71
2019-05-13T10:46:12.437Z,14.89
2019-05-13T10:48:38.075Z,15.79
2019-05-13T10:51:05.108Z,16.20
2019-05-13T10:53:32.495Z,16.43
2019-05-13T10:56:02.485Z,17.00
2019-05-13T10:58:28.595Z,16.59
2019-05-13T11:00:57.098Z,15.89
2019-05-13T11:03:24.477Z,16.62
2019-05-13T11:05:52.597Z,17.70
2019-05-13T11:08:22.300Z,17.58
2019-05-13T11:10:48.980Z,16.61
2019-05-13T11:13:16.995Z,16.51
2019-05-13T11:15:45.379Z,16.91
2019-05-13T11:18:19.115Z,16.39
2019-05-13T11:20:42.157Z,16.08
2019-05-13T11:23:11.922Z,15.88
2019-05-13T11:25:38.177Z,15.94
2019-05-13T11:28:05.598Z,16.36
2019-05-13T11:30:32.937Z,16.22
2019-05-13T11:33:01.777Z,16.22
2019-05-13T11:35:28.726Z,17.18
2019-05-13T11:37:56.028Z,17.77
2019-05-13T11:40:23.083Z,17.70
2019-05-13T11:42:52.673Z,17.83
2019-05-13T11:45:18.872Z,18.58
2019-05-13T11:47:45.903Z,18.76
2019-05-13T11:50:12.949Z,19.26
2019-05-13T11:52:42.510Z,17.68
2019-05-13T11:55:12.770Z,16.02
2019-05-13T11:57:38.093Z,16.44
2019-05-13T12:00:05.397Z,17.25
2019-05-13T12:02:32.928Z,16.51
2019-05-13T12:05:03.718Z,15.46
2019-05-13T12:07:29.055Z,15.71
2019-05-13T12:09:56.104Z,16.76
2019-05-13T12:12:30.167Z,17.20
2019-05-13T12:15:20.505Z,17.44
2019-05-13T12:17:22.531Z,17.36
2019-05-13T12:19:49.737Z,18.07
2019-05-13T12:22:16.767Z,18.98
2019-05-13T12:24:43.814Z,18.50
2019-05-13T12:27:11.581Z,18.25
2019-05-13T12:29:42.694Z,18.32
2019-05-13T12:32:07.919Z,18.73
2019-05-13T12:37:04.577Z,19.11
2019-05-13T12:39:32.242Z,18.84
2019-05-13T12:42:03.106Z,18.65
2019-05-13T12:44:28.359Z,17.82
2019-05-13T12:49:44.644Z,16.40
2019-05-13T12:52:13.102Z,16.37
2019-05-13T12:54:43.716Z,16.31
2019-05-13T12:57:13.129Z,16.06
2019-05-13T12:59:43.001Z,15.65
2019-05-13T13:02:08.411Z,15.47
2019-05-13T13:04:35.444Z,15.21
2019-05-13T13:07:02.493Z,14.85
2019-05-13T13:09:32.606Z,14.87
2019-05-13T13:11:58.287Z,14.36
2019-05-13T13:14:34.040Z,13.94
2019-05-13T13:16:54.672Z,13.73
2019-05-13T13:19:22.962Z,14.09
2019-05-13T13:21:53.401Z,14.13
2019-05-13T13:24:23.267Z,13.98
2019-05-13T13:26:48.093Z,13.79
2019-05-13T13:29:15.127Z,13.59
2019-05-13T13:31:43.419Z,13.65
2019-05-13T13:34:16.475Z,13.88
2019-05-13T13:36:39.396Z,13.80
2019-05-13T13:39:06.434Z,13.53
2019-05-13T13:41:33.550Z,13.37
2019-05-13T13:44:05.626Z,13.25
2019-05-13T13:46:41.263Z,13.28
2019-05-13T13:48:59.141Z,13.23
2019-05-13T13:51:27.262Z,13.30
2019-05-13T13:53:56.412Z,13.35
2019-05-13T13:56:25.276Z,13.49
2019-05-13T13:58:52.228Z,13.40
2019-05-13T14:01:22.363Z,13.30
2019-05-13T14:03:48.257Z,13.23
2019-05-13T14:06:33.065Z,19.51
2019-05-13T14:07:16.473Z,13.11
2019-05-13T14:08:44.042Z,13.19
2019-05-13T14:11:11.767Z,13.04
2019-05-13T14:13:39.013Z,13.06
2019-05-13T14:16:20.583Z,13.07
2019-05-13T14:18:35.142Z,13.24
2019-05-13T14:21:03.326Z,13.09
2019-05-13T14:23:31.731Z,13.15
2019-05-13T14:25:59.462Z,13.28
2019-05-13T14:28:26.820Z,13.37
2019-05-13T14:30:53.854Z,13.43
2019-05-13T14:33:21.219Z,13.28
2019-05-13T14:35:48.600Z,13.18
2019-05-13T14:38:15.643Z,13.13
2019-05-13T14:40:42.999Z,13.23
2019-05-13T14:43:12.124Z,13.32
2019-05-13T14:45:39.323Z,13.40
2019-05-13T14:48:06.687Z,13.43
2019-05-13T14:50:33.716Z,13.62
2019-05-13T14:53:01.690Z,13.62
2019-05-13T14:55:28.702Z,13.57
2019-05-13T14:57:56.101Z,13.52
2019-05-13T15:00:23.134Z,13.38
2019-05-13T15:02:51.823Z,13.30
2019-05-13T15:05:21.899Z,13.32
2019-05-13T15:07:48.036Z,13.21
2019-05-13T15:10:15.068Z,13.01
2019-05-13T15:12:42.160Z,12.92
2019-05-13T15:15:09.533Z,13.04
2019-05-13T15:17:36.824Z,13.25
2019-05-13T15:20:03.858Z,13.46
2019-05-13T15:22:31.953Z,13.67
2019-05-13T15:24:59.037Z,13.83
2019-05-13T15:27:26.412Z,13.98
2019-05-13T15:29:53.703Z,13.94
2019-05-13T15:32:21.801Z,13.97
2019-05-13T15:35:02.265Z,13.93
2019-05-13T15:40:17.135Z,13.19
2019-05-13T15:42:45.616Z,13.00
2019-05-13T15:45:13.881Z,13.05
2019-05-13T15:47:42.317Z,13.25
2019-05-13T15:50:12.302Z,13.47
2019-05-13T15:52:43.204Z,13.56
2019-05-13T15:55:11.945Z,13.46
2019-05-13T15:57:42.595Z,13.30
2019-05-13T16:00:09.261Z,13.04
2019-05-13T16:02:37.457Z,12.84
2019-05-13T16:05:05.438Z,12.72
2019-05-13T16:10:06.973Z,12.66
2019-05-13T16:15:15.907Z,13.03
2019-05-13T16:17:44.913Z,13.15
2019-05-13T16:20:12.280Z,13.28
2019-05-13T16:22:41.386Z,13.42
2019-05-13T16:25:08.060Z,13.60
2019-05-13T16:27:35.124Z,13.71
2019-05-13T16:30:02.541Z,13.67
2019-05-13T16:32:31.869Z,13.52
2019-05-13T16:35:02.295Z,13.37
2019-05-13T16:37:28.648Z,13.18
2019-05-13T16:39:55.683Z,13.07
2019-05-13T16:42:23.249Z,12.90
2019-05-13T16:44:51.589Z,12.78
2019-05-13T16:47:21.125Z,12.73
2019-05-13T16:49:47.876Z,12.60
2019-05-13T16:52:14.913Z,12.56
2019-05-13T16:54:42.646Z,12.52
2019-05-13T16:57:09.875Z,12.50
2019-05-13T16:59:37.009Z,12.48
2019-05-13T17:02:04.345Z,12.44
2019-05-13T17:04:32.303Z,12.39
2019-05-13T17:07:01.500Z,12.34
2019-05-13T17:09:28.812Z,12.30
2019-05-13T17:11:55.846Z,12.29
2019-05-13T17:14:23.151Z,12.31
2019-05-13T17:16:51.854Z,12.32
2019-05-13T17:19:20.258Z,12.26
2019-05-13T17:21:51.809Z,12.22
2019-05-13T17:24:19.083Z,12.17
2019-05-13T17:26:52.113Z,12.10
2019-05-13T17:29:21.200Z,12.05
2019-05-13T17:31:48.405Z,12.02
2019-05-13T17:34:16.038Z,11.98
2019-05-13T17:36:43.803Z,11.94
2019-05-13T17:39:12.465Z,11.92
2019-05-13T17:41:41.576Z,11.86
2019-05-13T17:44:11.447Z,11.81
2019-05-13T17:46:38.170Z,11.73
2019-05-13T17:49:05.329Z,11.67
2019-05-13T17:51:33.488Z,11.70
2019-05-13T17:54:01.387Z,11.69
2019-05-13T17:56:29.292Z,11.67
2019-05-13T17:58:56.501Z,11.61
2019-05-13T18:01:27.987Z,11.55
2019-05-13T18:03:55.462Z,11.47
2019-05-13T18:06:23.666Z,11.38
2019-05-13T18:08:51.767Z,11.29
2019-05-13T18:11:21.746Z,11.20
2019-05-13T18:13:51.685Z,11.19
2019-05-13T18:16:18.508Z,11.11
2019-05-13T18:18:47.518Z,11.08
2019-05-13T18:21:16.269Z,11.02
2019-05-13T18:23:44.051Z,10.95
2019-05-13T18:26:12.523Z,10.81
2019-05-13T18:28:42.128Z,10.71
2019-05-13T18:31:12.080Z,10.63
2019-05-13T18:33:38.603Z,10.51
2019-05-13T18:36:07.055Z,10.44
2019-05-13T18:38:34.230Z,10.45
2019-05-13T18:41:01.883Z,10.38
2019-05-13T18:43:29.147Z,10.29
2019-05-13T18:45:58.449Z,10.16
2019-05-13T18:48:26.913Z,10.16
2019-05-13T18:50:54.099Z,10.14
2019-05-13T18:53:21.625Z,10.01
2019-05-13T18:55:48.802Z,9.89
2019-05-13T18:58:16.966Z,9.80
2019-05-13T19:00:44.127Z,9.80
2019-05-13T19:03:12.565Z,9.80
2019-05-13T19:05:42.152Z,9.74
2019-05-13T19:08:09.045Z,9.61
2019-05-13T19:10:36.210Z,9.52
2019-05-13T19:13:04.370Z,9.44
2019-05-13T19:15:31.923Z,9.37
2019-05-13T19:18:00.484Z,9.29
2019-05-13T19:20:27.682Z,9.27
2019-05-13T19:22:55.401Z,9.18
2019-05-13T19:25:22.606Z,9.12
2019-05-13T19:27:51.710Z,9.10
2019-05-13T19:30:21.298Z,9.07
2019-05-13T19:32:49.245Z,8.99
2019-05-13T19:35:16.420Z,8.94
2019-05-13T19:37:43.657Z,8.89
2019-05-13T19:40:12.926Z,8.81
2019-05-13T19:42:41.865Z,8.74
2019-05-13T19:45:10.525Z,8.61
2019-05-13T19:47:41.551Z,8.51
2019-05-13T19:50:08.115Z,8.41
2019-05-13T19:52:35.644Z,8.36
2019-05-13T19:55:02.823Z,8.27
2019-05-13T19:57:31.905Z,8.17
2019-05-13T20:00:01.386Z,8.15
2019-05-13T20:02:28.701Z,8.12
2019-05-13T20:04:57.129Z,8.19
2019-05-13T20:07:24.324Z,8.12
2019-05-13T20:09:52.070Z,8.15
2019-05-13T20:12:22.422Z,8.09
2019-05-13T20:14:52.929Z,8.06
2019-05-13T20:17:21.932Z,8.03
2019-05-13T20:19:51.436Z,8.04
2019-05-13T20:22:18.964Z,8.12
2019-05-13T20:24:58.190Z,8.15
2019-05-13T20:30:03.092Z,7.97
2019-05-13T20:32:30.807Z,7.91
2019-05-13T20:34:57.837Z,7.82
2019-05-13T20:37:25.214Z,7.85
2019-05-13T20:39:52.247Z,7.86
2019-05-13T20:42:19.613Z,7.85
2019-05-13T20:44:46.787Z,7.85
2019-05-13T20:47:14.116Z,7.82
2019-05-13T20:49:42.118Z,7.79
2019-05-13T20:52:15.527Z,7.73
2019-05-13T20:54:42.723Z,7.65
2019-05-13T20:59:51.986Z,7.69
2019-05-13T21:02:21.930Z,7.70
2019-05-13T21:04:51.918Z,7.52
2019-05-13T21:07:21.583Z,7.35
2019-05-13T21:09:51.257Z,7.25
2019-05-13T21:12:18.692Z,7.18
2019-05-13T21:14:46.055Z,7.14
2019-05-13T21:17:13.097Z,7.11
2019-05-13T21:19:42.629Z,7.07
2019-05-13T21:22:08.870Z,7.04
2019-05-13T21:24:36.189Z,6.95
2019-05-13T21:27:03.546Z,6.88
2019-05-13T21:29:32.315Z,6.78
2019-05-13T21:32:01.141Z,6.73
2019-05-13T21:34:31.427Z,6.70
2019-05-13T21:36:59.436Z,6.68
2019-05-13T21:39:26.790Z,6.61
2019-05-13T21:41:53.825Z,6.56
2019-05-13T21:44:21.169Z,6.54
2019-05-13T21:46:48.199Z,6.53
2019-05-13T21:49:17.356Z,6.51
2019-05-13T21:51:44.568Z,6.50
2019-05-13T21:54:11.941Z,6.48
2019-05-13T21:56:39.018Z,6.46
2019-05-13T21:59:06.429Z,6.40
2019-05-13T22:01:33.792Z,6.40
2019-05-13T22:04:01.729Z,6.42
2019-05-13T22:06:28.887Z,6.40
2019-05-13T22:08:55.931Z,6.38
2019-05-13T22:11:22.965Z,6.37
2019-05-13T22:13:51.417Z,6.30
2019-05-13T22:16:18.663Z,6.27
2019-05-13T22:18:45.711Z,6.22
2019-05-13T22:21:13.053Z,6.21
2019-05-13T22:23:41.131Z,6.17
2019-05-13T22:29:11.096Z,6.14
2019-05-13T22:31:38.417Z,6.11
2019-05-13T22:34:05.760Z,6.03
2019-05-13T22:36:33.107Z,6.03
2019-05-13T22:39:02.072Z,6.05
2019-05-13T22:41:31.322Z,6.01
2019-05-13T22:43:59.072Z,6.05
2019-05-13T22:46:26.429Z,6.03
2019-05-13T22:48:53.730Z,5.97
2019-05-13T22:51:21.486Z,5.89
2019-05-13T22:53:48.560Z,5.85
2019-05-13T22:56:15.849Z,5.75
2019-05-13T22:58:42.893Z,5.61
2019-05-13T23:01:11.525Z,5.48
2019-05-13T23:03:41.087Z,5.47
2019-05-13T23:06:07.633Z,5.45
2019-05-13T23:08:34.680Z,5.44
2019-05-13T23:11:02.207Z,5.47
2019-05-13T23:13:31.170Z,5.51
2019-05-13T23:15:58.069Z,5.53
2019-05-13T23:18:25.417Z,5.57
2019-05-13T23:20:52.786Z,5.62
2019-05-13T23:23:21.992Z,5.64
2019-05-13T23:25:49.883Z,5.63
2019-05-13T23:28:16.907Z,5.61
2019-05-13T23:30:44.196Z,5.58
2019-05-13T23:33:11.752Z,5.57
2019-05-13T23:35:38.846Z,5.47
2019-05-13T23:38:05.875Z,5.40
2019-05-13T23:40:32.914Z,5.35
2019-05-13T23:43:02.137Z,5.26
2019-05-13T23:45:31.062Z,5.15
2019-05-13T23:47:57.660Z,5.05
2019-05-13T23:50:24.704Z,5.05
2019-05-13T23:52:51.726Z,5.06
2019-05-13T23:55:19.043Z,5.05
2019-05-13T23:57:46.070Z,5.05
